createdAt,value
2023-09-15T00:01:53.615Z,11.60
2023-09-15T00:04:20.848Z,8.25
2023-09-15T00:06:49.800Z,11.38
2023-09-15T00:09:19.537Z,10.82
2023-09-15T00:11:48.912Z,12.10
2023-09-15T00:14:16.273Z,12.18
2023-09-15T00:16:44.970Z,12.23
2023-09-15T00:19:16.071Z,14.77
2023-09-15T00:21:43.673Z,7.35
2023-09-15T00:24:10.869Z,12.55
2023-09-15T00:26:39.251Z,9.90
2023-09-15T00:29:06.492Z,9.65
2023-09-15T00:31:33.639Z,9.10
2023-09-15T00:34:00.841Z,11.00
2023-09-15T00:36:27.986Z,9.68
2023-09-15T00:38:55.679Z,7.25
2023-09-15T00:41:22.923Z,11.65
2023-09-15T00:43:50.079Z,9.43
2023-09-15T00:46:17.338Z,13.07
2023-09-15T00:48:47.011Z,6.43
2023-09-15T00:51:15.396Z,9.38
2023-09-15T00:53:42.466Z,12.38
2023-09-15T00:56:09.779Z,11.18
2023-09-15T00:58:39.886Z,11.60
2023-09-15T01:01:07.717Z,8.43
2023-09-15T01:03:35.918Z,8.60
2023-09-15T01:06:03.320Z,15.85
2023-09-15T01:08:30.874Z,8.43
2023-09-15T01:11:02.346Z,7.95
2023-09-15T01:13:29.444Z,11.13
2023-09-15T01:15:57.625Z,10.63
2023-09-15T01:18:28.793Z,6.55
2023-09-15T01:20:55.988Z,8.80
2023-09-15T01:23:42.455Z,11.40
2023-09-15T01:26:27.925Z,14.00
2023-09-15T01:29:01.252Z,13.32
2023-09-15T01:31:28.419Z,13.02
2023-09-15T01:33:55.570Z,9.25
2023-09-15T01:36:22.988Z,13.63
2023-09-15T01:38:50.029Z,10.85
2023-09-15T01:41:17.975Z,12.52
2023-09-15T01:43:45.135Z,13.10
2023-09-15T01:46:12.317Z,14.02
2023-09-15T01:48:39.505Z,14.73
2023-09-15T01:51:06.579Z,14.25
2023-09-15T01:53:34.698Z,10.35
2023-09-15T01:56:01.790Z,23.88
2023-09-15T01:58:28.918Z,12.05
2023-09-15T02:00:56.161Z,12.55
2023-09-15T02:03:23.450Z,17.70
2023-09-15T02:06:04.433Z,13.50
2023-09-15T02:08:31.564Z,10.75
2023-09-15T02:10:58.742Z,9.63
2023-09-15T02:13:25.865Z,10.25
2023-09-15T02:15:56.237Z,9.02
2023-09-15T02:18:23.689Z,8.70
2023-09-15T02:20:57.071Z,11.70
2023-09-15T02:23:24.510Z,12.18
2023-09-15T02:25:51.674Z,9.85
2023-09-15T02:28:21.786Z,9.25
2023-09-15T02:30:49.302Z,15.38
2023-09-15T02:33:16.629Z,11.40
2023-09-15T02:35:43.850Z,21.63
2023-09-15T02:38:10.994Z,8.88
2023-09-15T02:40:38.088Z,12.82
2023-09-15T02:43:05.265Z,15.27
2023-09-15T02:45:36.479Z,10.75
2023-09-15T02:48:04.343Z,13.20
2023-09-15T02:50:31.998Z,12.80
2023-09-15T02:52:59.912Z,13.77
2023-09-15T02:55:27.128Z,11.52
2023-09-15T02:57:54.370Z,11.23
2023-09-15T03:00:21.635Z,13.75
2023-09-15T03:02:49.202Z,13.85
2023-09-15T03:05:16.420Z,9.55
2023-09-15T03:07:43.710Z,9.40
2023-09-15T03:10:11.156Z,10.18
2023-09-15T03:12:38.328Z,13.80
2023-09-15T03:15:07.647Z,9.73
2023-09-15T03:17:35.111Z,17.80
2023-09-15T03:20:10.628Z,8.45
2023-09-15T03:22:37.727Z,11.35
2023-09-15T03:25:05.964Z,7.60
2023-09-15T03:27:33.329Z,9.82
2023-09-15T03:30:00.461Z,6.80
2023-09-15T03:32:27.588Z,12.88
2023-09-15T03:34:54.818Z,13.93
2023-09-15T03:37:21.943Z,13.20
2023-09-15T03:39:49.116Z,11.05
2023-09-15T03:42:16.351Z,12.68
2023-09-15T03:44:43.452Z,15.13
2023-09-15T03:47:10.697Z,13.40
2023-09-15T03:49:37.851Z,12.73
2023-09-15T03:52:05.141Z,14.95
2023-09-15T03:54:32.249Z,10.50
2023-09-15T03:56:59.501Z,15.52
2023-09-15T03:59:26.580Z,9.93
2023-09-15T04:01:53.714Z,12.55
2023-09-15T04:04:21.022Z,15.38
2023-09-15T04:06:48.665Z,15.35
2023-09-15T04:09:15.776Z,12.80
2023-09-15T04:11:42.914Z,10.45
2023-09-15T04:14:10.392Z,13.50
2023-09-15T04:16:39.070Z,18.88
2023-09-15T04:19:06.364Z,14.70
2023-09-15T04:21:35.119Z,12.30
2023-09-15T04:24:02.229Z,12.32
2023-09-15T04:26:29.302Z,10.90
2023-09-15T04:28:56.394Z,12.95
2023-09-15T04:31:23.516Z,11.65
2023-09-15T04:33:51.105Z,12.88
2023-09-15T04:36:18.564Z,11.88
2023-09-15T04:38:45.912Z,11.63
2023-09-15T04:41:13.231Z,11.43
2023-09-15T04:43:40.575Z,12.15
2023-09-15T04:46:07.690Z,7.55
2023-09-15T04:48:34.969Z,10.02
2023-09-15T04:51:02.080Z,11.27
2023-09-15T04:53:29.172Z,15.05
2023-09-15T04:55:56.454Z,22.13
2023-09-15T04:58:23.654Z,14.30
2023-09-15T05:00:50.765Z,12.10
2023-09-15T05:03:18.018Z,9.85
2023-09-15T05:05:46.586Z,14.20
2023-09-15T05:08:13.811Z,10.82
2023-09-15T05:10:40.910Z,9.50
2023-09-15T05:13:08.032Z,12.13
2023-09-15T05:15:36.076Z,9.75
2023-09-15T05:18:03.354Z,9.98
2023-09-15T05:20:30.559Z,11.48
2023-09-15T05:22:57.747Z,8.50
2023-09-15T05:25:24.915Z,10.25
2023-09-15T05:27:52.055Z,11.48
2023-09-15T05:30:19.281Z,10.27
2023-09-15T05:32:46.436Z,11.20
2023-09-15T05:35:13.629Z,8.30
2023-09-15T05:37:40.679Z,12.32
2023-09-15T05:40:08.964Z,9.70
2023-09-15T05:42:36.085Z,12.73
2023-09-15T05:45:03.294Z,7.53
2023-09-15T05:47:30.375Z,10.07
2023-09-15T05:49:57.491Z,11.85
2023-09-15T05:52:24.732Z,11.23
2023-09-15T05:54:51.871Z,12.57
2023-09-15T05:57:19.047Z,13.07
2023-09-15T05:59:47.855Z,18.17
2023-09-15T06:02:16.973Z,11.88
2023-09-15T06:04:47.197Z,10.30
2023-09-15T06:07:14.356Z,10.07
2023-09-15T06:09:41.453Z,10.23
2023-09-15T06:12:08.623Z,16.23
2023-09-15T06:14:37.156Z,9.50
2023-09-15T06:17:04.311Z,17.27
2023-09-15T06:19:31.557Z,21.75
2023-09-15T06:21:58.655Z,11.07
2023-09-15T06:24:25.784Z,10.15
2023-09-15T06:26:55.964Z,10.30
2023-09-15T06:29:23.179Z,12.55
2023-09-15T06:31:50.459Z,12.90
2023-09-15T06:34:17.640Z,9.93
2023-09-15T06:36:44.822Z,8.93
2023-09-15T06:39:12.074Z,9.90
2023-09-15T06:41:39.180Z,5.78
2023-09-15T06:44:06.479Z,7.80
2023-09-15T06:46:33.685Z,5.82
2023-09-15T06:49:00.937Z,6.85
2023-09-15T06:51:29.025Z,6.53
2023-09-15T06:53:56.815Z,6.47
2023-09-15T06:56:23.912Z,7.38
2023-09-15T06:58:51.008Z,7.75
2023-09-15T07:01:18.779Z,8.07
2023-09-15T07:03:46.053Z,5.07
2023-09-15T07:06:14.812Z,7.05
2023-09-15T07:08:41.906Z,6.07
2023-09-15T07:11:09.632Z,6.28
2023-09-15T07:13:36.753Z,7.97
2023-09-15T07:16:03.855Z,9.05
2023-09-15T07:18:30.913Z,10.20
2023-09-15T07:20:58.011Z,4.40
2023-09-15T07:23:25.130Z,5.15
2023-09-15T07:25:52.261Z,7.10
2023-09-15T07:28:19.528Z,5.53
2023-09-15T07:30:46.694Z,7.00
2023-09-15T07:33:13.872Z,4.00
2023-09-15T07:35:41.042Z,3.45
2023-09-15T07:38:09.533Z,5.45
2023-09-15T07:40:36.636Z,7.93
2023-09-15T07:43:03.851Z,5.50
2023-09-15T07:45:31.001Z,4.85
2023-09-15T07:47:59.047Z,6.72
2023-09-15T07:50:26.219Z,3.53
2023-09-15T07:52:53.311Z,5.93
2023-09-15T07:55:20.511Z,6.93
2023-09-15T07:57:47.656Z,6.20
2023-09-15T08:00:14.816Z,8.35
2023-09-15T08:02:42.065Z,7.93
2023-09-15T08:05:09.424Z,4.95
2023-09-15T08:07:36.512Z,6.10
2023-09-15T08:10:04.817Z,8.80
2023-09-15T08:12:32.235Z,5.20
2023-09-15T08:14:59.364Z,5.75
2023-09-15T08:17:33.812Z,4.95
2023-09-15T08:20:01.687Z,6.43
2023-09-15T08:22:29.022Z,6.78
2023-09-15T08:24:56.473Z,6.57
2023-09-15T08:27:23.774Z,4.47
2023-09-15T08:29:50.888Z,7.43
2023-09-15T08:32:18.125Z,10.38
2023-09-15T08:34:45.299Z,7.80
2023-09-15T08:37:15.234Z,8.30
2023-09-15T08:39:42.321Z,5.18
2023-09-15T08:42:15.793Z,5.72
2023-09-15T08:44:42.908Z,8.00
2023-09-15T08:47:10.005Z,10.27
2023-09-15T08:49:37.508Z,8.02
2023-09-15T08:52:05.615Z,6.57
2023-09-15T08:54:33.032Z,4.85
2023-09-15T08:57:01.196Z,5.22
2023-09-15T08:59:28.388Z,6.15
2023-09-15T09:01:55.557Z,5.22
2023-09-15T09:04:22.724Z,5.07
2023-09-15T09:06:50.032Z,9.75
2023-09-15T09:09:17.176Z,7.22
2023-09-15T09:11:44.210Z,6.63
2023-09-15T09:14:14.191Z,4.85
2023-09-15T09:19:11.527Z,6.07
2023-09-15T09:21:38.839Z,7.90
2023-09-15T09:24:06.251Z,8.48
2023-09-15T09:26:33.400Z,6.82
2023-09-15T09:29:00.609Z,6.97
2023-09-15T09:31:28.317Z,5.43
2023-09-15T09:33:55.688Z,5.20
2023-09-15T09:36:22.838Z,5.15
2023-09-15T09:38:50.787Z,7.38
2023-09-15T09:41:19.352Z,5.22
2023-09-15T09:43:53.011Z,7.32
2023-09-15T09:46:21.619Z,5.22
2023-09-15T09:48:49.774Z,4.07
2023-09-15T09:51:17.772Z,4.13
2023-09-15T09:53:45.036Z,5.60
2023-09-15T09:56:12.117Z,5.47
2023-09-15T09:58:39.379Z,4.32
2023-09-15T10:01:07.844Z,4.60
2023-09-15T10:03:35.534Z,8.48
2023-09-15T10:06:04.958Z,4.53
2023-09-15T10:08:32.432Z,3.58
2023-09-15T10:10:59.811Z,3.95
2023-09-15T10:13:27.189Z,6.35
2023-09-15T10:15:55.179Z,4.35
2023-09-15T10:18:22.474Z,6.15
2023-09-15T10:20:50.285Z,6.55
2023-09-15T10:23:17.628Z,4.38
2023-09-15T10:25:51.599Z,4.03
2023-09-15T10:28:34.033Z,5.22
2023-09-15T10:31:08.931Z,6.03
2023-09-15T10:33:38.119Z,5.78
2023-09-15T10:36:05.853Z,4.20
2023-09-15T10:38:35.201Z,5.10
2023-09-15T10:41:06.419Z,7.63
2023-09-15T10:43:33.613Z,6.03
2023-09-15T10:46:03.706Z,4.50
2023-09-15T10:48:42.124Z,4.57
2023-09-15T10:51:09.457Z,5.47
2023-09-15T10:53:45.946Z,5.55
2023-09-15T10:56:13.734Z,4.20
2023-09-15T10:58:41.640Z,4.25
2023-09-15T11:01:10.481Z,4.65
2023-09-15T11:03:40.647Z,2.67
2023-09-15T11:06:09.921Z,4.30
2023-09-15T11:08:37.393Z,3.42
2023-09-15T11:11:07.768Z,3.45
2023-09-15T11:13:35.448Z,3.53
2023-09-15T11:16:02.909Z,4.30
2023-09-15T11:18:33.204Z,3.30
2023-09-15T11:21:00.308Z,3.60
2023-09-15T11:23:27.401Z,3.80
2023-09-15T11:26:13.261Z,2.40
2023-09-15T11:28:49.677Z,2.83
2023-09-15T11:31:17.526Z,5.20
2023-09-15T11:33:45.672Z,4.85
2023-09-15T11:36:12.993Z,5.93
2023-09-15T11:38:40.699Z,8.15
2023-09-15T11:41:07.883Z,3.50
2023-09-15T11:43:36.189Z,3.33
2023-09-15T11:46:07.507Z,4.03
2023-09-15T11:48:39.396Z,4.50
2023-09-15T11:51:10.939Z,2.92
2023-09-15T11:53:38.343Z,3.92
2023-09-15T11:56:05.741Z,3.00
2023-09-15T11:58:33.735Z,3.25
2023-09-15T12:01:02.262Z,5.88
2023-09-15T12:03:31.017Z,3.10
2023-09-15T12:05:58.353Z,6.30
2023-09-15T12:08:25.542Z,3.42
2023-09-15T12:11:05.567Z,3.08
2023-09-15T12:13:39.652Z,3.13
2023-09-15T12:16:06.993Z,2.67
2023-09-15T12:18:40.676Z,3.47
2023-09-15T12:21:12.405Z,3.60
2023-09-15T12:23:41.238Z,2.95
2023-09-15T12:26:10.803Z,3.97
2023-09-15T12:28:39.036Z,7.05
2023-09-15T12:31:06.211Z,5.75
2023-09-15T12:33:33.935Z,3.60
2023-09-15T12:36:07.668Z,3.92
2023-09-15T12:38:34.829Z,4.50
2023-09-15T12:41:02.138Z,5.03
2023-09-15T12:43:29.280Z,3.78
2023-09-15T12:45:56.638Z,4.18
2023-09-15T12:48:24.290Z,4.05
2023-09-15T12:50:51.419Z,3.30
2023-09-15T12:53:18.548Z,2.33
2023-09-15T12:55:46.986Z,5.80
2023-09-15T12:58:16.113Z,3.92
2023-09-15T13:00:43.273Z,6.15
2023-09-15T13:03:10.594Z,3.17
2023-09-15T13:05:37.848Z,5.38
2023-09-15T13:08:05.107Z,3.67
2023-09-15T13:10:35.134Z,3.42
2023-09-15T13:13:02.284Z,3.45
2023-09-15T13:15:29.439Z,2.20
2023-09-15T13:17:56.991Z,3.63
2023-09-15T13:20:24.275Z,2.45
2023-09-15T13:22:51.430Z,3.28
2023-09-15T13:25:21.093Z,3.17
2023-09-15T13:27:48.457Z,2.35
2023-09-15T13:30:15.870Z,2.65
2023-09-15T13:32:45.170Z,3.72
2023-09-15T13:35:14.277Z,4.93
2023-09-15T13:37:42.021Z,2.08
2023-09-15T13:40:09.319Z,2.25
2023-09-15T13:42:37.445Z,1.83
2023-09-15T13:45:05.119Z,2.30
2023-09-15T13:47:33.380Z,2.00
2023-09-15T13:50:01.295Z,2.03
2023-09-15T13:52:29.517Z,3.10
2023-09-15T13:54:59.659Z,1.55
2023-09-15T13:57:29.102Z,3.50
2023-09-15T13:59:57.165Z,2.38
2023-09-15T14:02:27.629Z,3.13
2023-09-15T14:04:54.788Z,3.70
2023-09-15T14:07:21.859Z,5.05
2023-09-15T14:09:48.975Z,2.35
2023-09-15T14:12:16.138Z,3.33
2023-09-15T14:14:43.408Z,2.47
2023-09-15T14:17:10.498Z,4.28
2023-09-15T14:19:37.802Z,1.98
2023-09-15T14:22:05.085Z,2.95
2023-09-15T14:24:35.964Z,4.50
2023-09-15T14:27:03.852Z,3.35
2023-09-15T14:29:31.330Z,4.40
2023-09-15T14:32:01.130Z,1.52
2023-09-15T14:34:28.484Z,1.35
2023-09-15T14:36:56.081Z,2.80
2023-09-15T14:39:24.659Z,1.40
2023-09-15T14:41:53.707Z,1.95
2023-09-15T14:44:21.249Z,3.40
2023-09-15T14:46:48.775Z,1.67
2023-09-15T14:49:15.907Z,2.13
2023-09-15T14:51:43.159Z,2.28
2023-09-15T14:54:10.413Z,4.72
2023-09-15T14:56:37.831Z,1.33
2023-09-15T14:59:05.070Z,1.88
2023-09-15T15:01:32.244Z,1.40
2023-09-15T15:03:59.494Z,1.65
2023-09-15T15:06:26.688Z,1.38
2023-09-15T15:08:53.799Z,1.95
2023-09-15T15:11:20.937Z,2.17
2023-09-15T15:13:48.503Z,2.13
2023-09-15T15:16:17.176Z,2.00
2023-09-15T15:18:48.144Z,2.13
2023-09-15T15:21:15.629Z,1.75
2023-09-15T15:23:42.777Z,1.65
2023-09-15T15:26:09.995Z,3.13
2023-09-15T15:28:37.694Z,2.47
2023-09-15T15:31:11.658Z,2.28
2023-09-15T15:33:39.028Z,2.25
2023-09-15T15:36:07.882Z,2.40
2023-09-15T15:38:35.806Z,1.73
2023-09-15T15:41:04.094Z,5.05
2023-09-15T15:43:32.938Z,1.80
2023-09-15T15:46:00.707Z,2.60
2023-09-15T15:48:28.784Z,2.30
2023-09-15T15:50:56.001Z,1.73
2023-09-15T15:53:23.143Z,3.03
2023-09-15T15:55:50.609Z,2.03
2023-09-15T15:58:18.138Z,2.53
2023-09-15T16:00:45.695Z,2.95
2023-09-15T16:03:13.097Z,3.83
2023-09-15T16:05:44.088Z,2.60
2023-09-15T16:08:11.296Z,2.72
2023-09-15T16:10:38.489Z,2.00
2023-09-15T16:13:05.775Z,2.53
2023-09-15T16:15:33.217Z,3.78
2023-09-15T16:18:23.825Z,2.78
2023-09-15T16:20:55.827Z,3.22
2023-09-15T16:23:23.034Z,2.63
2023-09-15T16:25:50.225Z,3.08
2023-09-15T16:28:17.323Z,4.60
2023-09-15T16:30:45.466Z,4.43
2023-09-15T16:33:13.149Z,3.70
2023-09-15T16:35:40.464Z,5.95
2023-09-15T16:38:07.711Z,2.72
2023-09-15T16:40:36.335Z,2.38
2023-09-15T16:43:04.077Z,2.05
2023-09-15T16:45:33.462Z,2.83
2023-09-15T16:48:01.135Z,4.85
2023-09-15T16:50:28.313Z,4.47
2023-09-15T16:52:55.796Z,3.95
2023-09-15T16:55:22.853Z,2.67
2023-09-15T16:57:50.986Z,3.10
2023-09-15T17:00:18.290Z,3.25
2023-09-15T17:02:45.584Z,2.58
2023-09-15T17:05:14.252Z,4.10
2023-09-15T17:07:41.473Z,2.33
2023-09-15T17:10:15.055Z,4.95
2023-09-15T17:12:43.679Z,4.43
2023-09-15T17:15:12.384Z,3.40
2023-09-15T17:17:41.265Z,3.17
2023-09-15T17:22:37.468Z,3.20
2023-09-15T17:25:04.712Z,2.50
2023-09-15T17:27:31.935Z,3.00
2023-09-15T17:29:59.103Z,2.80
2023-09-15T17:32:26.495Z,5.80
2023-09-15T17:34:53.719Z,5.30
2023-09-15T17:37:20.812Z,2.83
2023-09-15T17:39:51.364Z,4.38
2023-09-15T17:42:19.071Z,6.00
2023-09-15T17:44:46.282Z,4.55
2023-09-15T17:47:13.340Z,6.43
2023-09-15T17:49:41.464Z,6.95
2023-09-15T17:52:10.652Z,6.57
2023-09-15T17:54:37.961Z,4.90
2023-09-15T17:57:05.252Z,6.20
2023-09-15T17:59:32.334Z,5.70
2023-09-15T18:01:59.738Z,5.63
2023-09-15T18:04:26.930Z,11.50
2023-09-15T18:06:54.040Z,7.78
2023-09-15T18:09:21.327Z,3.10
2023-09-15T18:11:48.411Z,7.10
2023-09-15T18:14:15.662Z,6.53
2023-09-15T18:16:42.810Z,7.35
2023-09-15T18:19:09.951Z,4.00
2023-09-15T18:21:37.129Z,8.25
2023-09-15T18:24:04.434Z,8.38
2023-09-15T18:26:31.529Z,8.48
2023-09-15T18:28:58.620Z,5.53
2023-09-15T18:31:25.765Z,5.63
2023-09-15T18:33:53.088Z,6.70
2023-09-15T18:36:21.721Z,7.60
2023-09-15T18:38:50.327Z,5.30
2023-09-15T18:41:18.145Z,11.73
2023-09-15T18:43:45.261Z,7.88
2023-09-15T18:46:12.436Z,7.05
2023-09-15T18:48:39.679Z,8.65
2023-09-15T18:51:07.712Z,15.73
2023-09-15T18:53:34.847Z,6.93
2023-09-15T18:56:01.963Z,5.38
2023-09-15T18:58:29.086Z,5.70
2023-09-15T19:00:56.412Z,6.55
2023-09-15T19:03:23.791Z,6.85
2023-09-15T19:05:52.053Z,5.88
2023-09-15T19:08:19.647Z,7.53
2023-09-15T19:10:46.881Z,4.93
2023-09-15T19:13:27.163Z,7.85
2023-09-15T19:16:00.148Z,5.82
2023-09-15T19:18:27.458Z,9.40
2023-09-15T19:20:54.690Z,7.82
2023-09-15T19:23:21.783Z,6.07
2023-09-15T19:25:48.899Z,4.95
2023-09-15T19:28:16.704Z,7.70
2023-09-15T19:30:43.989Z,8.40
2023-09-15T19:33:11.533Z,8.13
2023-09-15T19:35:38.710Z,6.35
2023-09-15T19:38:06.314Z,6.88
2023-09-15T19:40:33.591Z,5.80
2023-09-15T19:43:08.105Z,5.65
2023-09-15T19:45:35.332Z,9.50
2023-09-15T19:48:02.471Z,7.75
2023-09-15T19:50:29.740Z,7.25
2023-09-15T19:52:56.853Z,5.82
2023-09-15T19:55:24.037Z,6.70
2023-09-15T19:57:52.996Z,6.35
2023-09-15T20:00:20.329Z,7.53
2023-09-15T20:02:48.025Z,5.90
2023-09-15T20:05:15.638Z,11.15
2023-09-15T20:07:42.968Z,5.43
2023-09-15T20:10:10.510Z,9.07
2023-09-15T20:12:37.654Z,8.52
2023-09-15T20:15:10.827Z,8.85
2023-09-15T20:17:39.489Z,7.28
2023-09-15T20:20:07.377Z,7.15
2023-09-15T20:22:34.753Z,7.40
2023-09-15T20:25:01.874Z,8.07
2023-09-15T20:27:29.096Z,6.65
2023-09-15T20:29:56.548Z,12.38
2023-09-15T20:32:23.641Z,5.97
2023-09-15T20:34:50.747Z,7.65
2023-09-15T20:37:18.675Z,4.93
2023-09-15T20:39:46.355Z,8.70
2023-09-15T20:42:14.155Z,8.82
2023-09-15T20:44:41.311Z,5.85
2023-09-15T20:47:08.417Z,8.93
2023-09-15T20:49:35.595Z,8.70
2023-09-15T20:52:03.357Z,6.20
2023-09-15T20:54:33.535Z,9.23
2023-09-15T20:57:00.653Z,11.10
2023-09-15T20:59:27.839Z,5.82
2023-09-15T21:01:56.106Z,8.35
2023-09-15T21:04:23.458Z,7.22
2023-09-15T21:06:50.911Z,9.00
2023-09-15T21:09:18.269Z,7.35
2023-09-15T21:11:45.700Z,6.88
2023-09-15T21:14:12.910Z,8.25
2023-09-15T21:16:43.600Z,5.47
2023-09-15T21:19:11.550Z,8.02
2023-09-15T21:21:39.086Z,5.38
2023-09-15T21:24:06.329Z,6.85
2023-09-15T21:26:33.466Z,8.77
2023-09-15T21:29:00.829Z,5.70
2023-09-15T21:31:28.074Z,6.97
2023-09-15T21:33:55.726Z,8.43
2023-09-15T21:36:22.917Z,7.05
2023-09-15T21:38:50.347Z,5.32
2023-09-15T21:41:17.785Z,6.32
2023-09-15T21:43:44.863Z,6.75
2023-09-15T21:46:12.100Z,5.80
2023-09-15T21:48:39.516Z,6.60
2023-09-15T21:51:06.689Z,8.15
2023-09-15T21:53:34.287Z,8.20
2023-09-15T21:56:01.475Z,9.88
2023-09-15T21:58:28.616Z,8.57
2023-09-15T22:00:55.984Z,7.10
2023-09-15T22:03:24.194Z,8.65
2023-09-15T22:05:53.651Z,9.60
2023-09-15T22:08:20.737Z,8.30
2023-09-15T22:10:47.790Z,9.68
2023-09-15T22:13:16.981Z,7.53
2023-09-15T22:15:44.441Z,7.82
2023-09-15T22:18:14.066Z,6.68
2023-09-15T22:20:41.579Z,8.03
2023-09-15T22:23:08.902Z,7.13
2023-09-15T22:25:36.358Z,9.00
2023-09-15T22:28:03.861Z,7.72
2023-09-15T22:30:33.127Z,12.75
2023-09-15T22:33:00.920Z,7.95
2023-09-15T22:35:28.370Z,6.30
2023-09-15T22:37:55.497Z,7.05
2023-09-15T22:40:22.543Z,5.88
2023-09-15T22:42:49.808Z,8.50
2023-09-15T22:45:19.105Z,7.75
2023-09-15T22:47:46.859Z,10.10
2023-09-15T22:50:17.283Z,6.82
2023-09-15T22:52:45.510Z,8.68
2023-09-15T22:55:21.571Z,8.13
2023-09-15T22:57:48.865Z,8.27
2023-09-15T23:00:19.317Z,5.90
2023-09-15T23:05:13.571Z,9.05
2023-09-15T23:07:40.867Z,9.57
2023-09-15T23:10:08.352Z,7.80
2023-09-15T23:12:35.529Z,14.82
2023-09-15T23:15:03.292Z,6.93
2023-09-15T23:17:30.481Z,10.55
2023-09-15T23:19:57.904Z,12.02
2023-09-15T23:22:25.203Z,9.00
2023-09-15T23:24:52.827Z,9.73
2023-09-15T23:27:20.126Z,10.50
2023-09-15T23:29:47.279Z,11.32
2023-09-15T23:32:14.560Z,11.40
2023-09-15T23:34:41.910Z,10.07
2023-09-15T23:37:09.016Z,9.30
2023-09-15T23:39:36.543Z,9.20
2023-09-15T23:42:04.280Z,13.10
2023-09-15T23:44:31.531Z,10.23
2023-09-15T23:46:58.675Z,12.52
2023-09-15T23:49:25.877Z,13.45
2023-09-15T23:51:53.108Z,9.52
2023-09-15T23:54:20.224Z,9.27
2023-09-15T23:56:47.423Z,7.78
2023-09-15T23:59:14.534Z,9.13
